createdAt,value
2022-10-11T00:00:05.464Z,-108.00
2022-10-11T00:05:12.617Z,-108.00
2022-10-11T00:10:19.878Z,-144.00
2022-10-11T00:15:27.094Z,-108.00
2022-10-11T00:20:34.263Z,-108.00
2022-10-11T00:25:41.483Z,-144.00
2022-10-11T00:30:48.740Z,-108.00
2022-10-11T00:35:55.984Z,-108.00
2022-10-11T00:41:03.233Z,-108.00
2022-10-11T00:46:10.468Z,-108.00
2022-10-11T00:51:17.656Z,-144.00
2022-10-11T00:56:24.790Z,-144.00
2022-10-11T01:01:32.102Z,-144.00
2022-10-11T01:06:39.218Z,-108.00
2022-10-11T01:11:46.373Z,-144.00
2022-10-11T01:16:53.554Z,-144.00
2022-10-11T01:22:00.757Z,-144.00
2022-10-11T01:27:08.153Z,-144.00
2022-10-11T01:32:15.358Z,-108.00
2022-10-11T01:37:22.572Z,-144.00
2022-10-11T01:42:29.992Z,-144.00
2022-10-11T01:47:37.303Z,-144.00
2022-10-11T01:52:44.369Z,-108.00
2022-10-11T01:57:51.711Z,-144.00
2022-10-11T02:02:58.947Z,-144.00
2022-10-11T02:08:06.187Z,-144.00
2022-10-11T02:13:13.461Z,-144.00
2022-10-11T02:18:20.734Z,-108.00
2022-10-11T02:23:28.119Z,-108.00
2022-10-11T02:28:35.394Z,-108.00
2022-10-11T02:33:42.598Z,-108.00
2022-10-11T02:38:49.781Z,-144.00
2022-10-11T02:43:56.996Z,-144.00
2022-10-11T02:49:04.210Z,-144.00
2022-10-11T02:54:11.388Z,-108.00
2022-10-11T02:59:18.561Z,-144.00
2022-10-11T03:04:25.846Z,-108.00
2022-10-11T03:09:33.074Z,-108.00
2022-10-11T03:14:40.281Z,-144.00
2022-10-11T03:19:47.525Z,-108.00
2022-10-11T03:24:55.958Z,-108.00
2022-10-11T03:30:01.906Z,-108.00
2022-10-11T03:35:09.121Z,-144.00
2022-10-11T03:40:16.336Z,-144.00
2022-10-11T03:45:23.537Z,-144.00
2022-10-11T03:50:30.825Z,-144.00
2022-10-11T03:55:38.014Z,-144.00
2022-10-11T04:00:45.208Z,-108.00
2022-10-11T04:05:52.438Z,-144.00
2022-10-11T04:10:59.629Z,-144.00
2022-10-11T04:16:09.054Z,-108.00
2022-10-11T04:21:15.943Z,-108.00
2022-10-11T04:26:23.071Z,-144.00
2022-10-11T04:31:30.274Z,-108.00
2022-10-11T04:36:37.606Z,-144.00
2022-10-11T04:41:44.766Z,-144.00
2022-10-11T04:46:52.009Z,-108.00
2022-10-11T04:51:59.284Z,-144.00
2022-10-11T04:57:06.449Z,-144.00
2022-10-11T05:02:13.720Z,-144.00
2022-10-11T05:07:20.845Z,-144.00
2022-10-11T05:12:28.021Z,-144.00
2022-10-11T05:17:35.294Z,-144.00
2022-10-11T05:22:42.653Z,-144.00
2022-10-11T05:27:49.810Z,-144.00
2022-10-11T05:32:56.987Z,-144.00
2022-10-11T05:38:04.333Z,-144.00
2022-10-11T05:43:11.564Z,-108.00
2022-10-11T05:48:18.777Z,-144.00
2022-10-11T05:53:25.944Z,-72.00
2022-10-11T05:58:33.086Z,-72.00
2022-10-11T06:03:40.338Z,-72.00
2022-10-11T06:08:47.718Z,-108.00
2022-10-11T06:13:54.874Z,-72.00
2022-10-11T06:19:02.086Z,-36.00
2022-10-11T06:24:09.362Z,-36.00
2022-10-11T06:29:16.442Z,-36.00
2022-10-11T06:34:23.675Z,7236.00
2022-10-11T06:39:30.901Z,8280.00
2022-10-11T06:44:38.054Z,9792.00
2022-10-11T06:49:45.302Z,11196.00
2022-10-11T06:54:52.546Z,11736.00
2022-10-11T07:00:00.136Z,13068.00
2022-10-11T07:05:07.338Z,13176.00
2022-10-11T07:10:14.525Z,13788.00
2022-10-11T07:15:21.689Z,14040.00
2022-10-11T07:20:28.865Z,13932.00
2022-10-11T07:25:36.140Z,14688.00
2022-10-11T07:30:43.369Z,15300.00
2022-10-11T07:35:50.563Z,14868.00
2022-10-11T07:40:57.760Z,15084.00
2022-10-11T07:46:05.478Z,14940.00
2022-10-11T07:51:12.195Z,14904.00
2022-10-11T07:56:19.412Z,14904.00
2022-10-11T08:01:26.774Z,13860.00
2022-10-11T08:06:33.892Z,13428.00
2022-10-11T08:11:41.205Z,14400.00
2022-10-11T08:16:48.321Z,15516.00
2022-10-11T08:21:55.490Z,15228.00
2022-10-11T08:27:02.691Z,15156.00
2022-10-11T08:32:09.972Z,14688.00
2022-10-11T08:37:17.142Z,14652.00
2022-10-11T08:42:24.361Z,14580.00
2022-10-11T08:47:31.550Z,14004.00
2022-10-11T08:52:38.770Z,14400.00
2022-10-11T08:57:46.011Z,14148.00
2022-10-11T09:03:07.932Z,15156.00
2022-10-11T09:08:00.664Z,15408.00
2022-10-11T09:13:07.897Z,14040.00
2022-10-11T09:18:15.060Z,13716.00
2022-10-11T09:23:22.259Z,13932.00
2022-10-11T09:28:29.592Z,14724.00
2022-10-11T09:33:36.688Z,14832.00
2022-10-11T09:38:43.990Z,14292.00
2022-10-11T09:43:51.184Z,14508.00
2022-10-11T09:48:59.430Z,15048.00
2022-10-11T09:54:06.647Z,14904.00
2022-10-11T09:59:13.878Z,15516.00
2022-10-11T10:04:21.037Z,16560.00
2022-10-11T10:09:28.243Z,16704.00
2022-10-11T10:14:36.097Z,16488.00
2022-10-11T10:19:45.241Z,16956.00
2022-10-11T10:24:50.535Z,17100.00
2022-10-11T10:29:57.807Z,17064.00
2022-10-11T10:35:05.252Z,15984.00
2022-10-11T10:40:12.449Z,16128.00
2022-10-11T10:45:21.774Z,16020.00
2022-10-11T10:50:26.919Z,16092.00
2022-10-11T10:55:34.115Z,16452.00
2022-10-11T11:00:41.344Z,16272.00
2022-10-11T11:05:50.241Z,16488.00
2022-10-11T11:10:57.459Z,16596.00
2022-10-11T11:16:05.232Z,16956.00
2022-10-11T11:21:12.083Z,15624.00
2022-10-11T11:26:19.284Z,14760.00
2022-10-11T11:31:26.666Z,14004.00
2022-10-11T11:36:33.811Z,14112.00
2022-10-11T11:41:41.002Z,14724.00
2022-10-11T11:46:48.227Z,14796.00
2022-10-11T11:51:55.447Z,14976.00
2022-10-11T11:57:02.820Z,14976.00
2022-10-11T12:02:10.115Z,15300.00
2022-10-11T12:07:17.887Z,15264.00
2022-10-11T12:12:24.463Z,15336.00
2022-10-11T12:17:31.643Z,15696.00
2022-10-11T12:22:38.953Z,16164.00
2022-10-11T12:27:46.189Z,16596.00
2022-10-11T12:32:53.376Z,16200.00
2022-10-11T12:38:00.552Z,16380.00
2022-10-11T12:43:07.776Z,15948.00
2022-10-11T12:48:14.965Z,15048.00
2022-10-11T12:53:22.124Z,16668.00
2022-10-11T12:58:29.837Z,15804.00
2022-10-11T13:03:37.055Z,15732.00
2022-10-11T13:08:44.201Z,14976.00
2022-10-11T13:13:51.352Z,15264.00
2022-10-11T13:18:58.546Z,14940.00
2022-10-11T13:24:05.665Z,15408.00
2022-10-11T13:29:12.844Z,14868.00
2022-10-11T13:34:23.348Z,15408.00
2022-10-11T13:39:30.980Z,15228.00
2022-10-11T13:44:34.427Z,14508.00
2022-10-11T13:49:41.653Z,14868.00
2022-10-11T13:54:49.006Z,15048.00
2022-10-11T13:59:56.341Z,15012.00
2022-10-11T14:05:03.620Z,15192.00
2022-10-11T14:10:10.912Z,15156.00
2022-10-11T14:15:18.381Z,15840.00
2022-10-11T14:20:29.546Z,17280.00
2022-10-11T14:25:33.996Z,15912.00
2022-10-11T14:30:41.246Z,16056.00
2022-10-11T14:35:48.444Z,14760.00
2022-10-11T14:40:55.608Z,13968.00
2022-10-11T14:46:03.112Z,14364.00
2022-10-11T14:51:10.057Z,14292.00
2022-10-11T14:56:21.313Z,14544.00
2022-10-11T15:01:24.510Z,14796.00
2022-10-11T15:06:31.699Z,15084.00
2022-10-11T15:11:38.957Z,13896.00
2022-10-11T15:16:46.153Z,13608.00
2022-10-11T15:21:53.383Z,13212.00
2022-10-11T15:27:00.564Z,12816.00
2022-10-11T15:32:07.798Z,11232.00
2022-10-11T15:37:15.139Z,9828.00
2022-10-11T15:42:22.283Z,8496.00
2022-10-11T15:47:29.452Z,7884.00
2022-10-11T15:52:36.711Z,7956.00
2022-10-11T15:57:43.887Z,7236.00
2022-10-11T16:02:51.130Z,6012.00
2022-10-11T16:07:58.345Z,5400.00
2022-10-11T16:13:05.500Z,4752.00
2022-10-11T16:18:12.713Z,3852.00
2022-10-11T16:23:19.957Z,3168.00
2022-10-11T16:28:27.170Z,2592.00
2022-10-11T16:33:34.327Z,1908.00
2022-10-11T16:38:41.566Z,1224.00
2022-10-11T16:43:48.745Z,612.00
2022-10-11T16:48:55.916Z,252.00
2022-10-11T16:54:03.102Z,108.00
2022-10-11T16:59:10.309Z,-36.00
2022-10-11T17:04:17.487Z,-36.00
2022-10-11T17:09:24.683Z,0.00
2022-10-11T17:14:31.865Z,7416.00
2022-10-11T17:19:44.044Z,7776.00
2022-10-11T17:24:46.306Z,7704.00
2022-10-11T17:29:53.523Z,7704.00
2022-10-11T17:35:00.722Z,7632.00
2022-10-11T17:40:08.215Z,7668.00
2022-10-11T17:45:15.573Z,7668.00
2022-10-11T17:50:23.113Z,7632.00
2022-10-11T17:55:30.565Z,7704.00
2022-10-11T18:00:37.781Z,7740.00
2022-10-11T18:05:44.995Z,7632.00
2022-10-11T18:10:52.278Z,7668.00
2022-10-11T18:15:59.751Z,7776.00
2022-10-11T18:21:07.140Z,7632.00
2022-10-11T18:26:14.433Z,7668.00
2022-10-11T18:31:21.607Z,7740.00
2022-10-11T18:36:29.080Z,7740.00
2022-10-11T18:41:36.479Z,7740.00
2022-10-11T18:46:44.001Z,7812.00
2022-10-11T18:51:51.719Z,7668.00
2022-10-11T18:56:59.081Z,7704.00
2022-10-11T19:02:06.233Z,7596.00
2022-10-11T19:07:13.741Z,7524.00
2022-10-11T19:12:21.083Z,7416.00
2022-10-11T19:17:28.458Z,7668.00
2022-10-11T19:22:35.789Z,7668.00
2022-10-11T19:27:43.004Z,7704.00
2022-10-11T19:32:50.198Z,7668.00
2022-10-11T19:37:57.687Z,7668.00
2022-10-11T19:43:05.105Z,7704.00
2022-10-11T19:48:12.268Z,7776.00
2022-10-11T19:53:19.812Z,7740.00
2022-10-11T19:58:27.282Z,7776.00
2022-10-11T20:03:34.734Z,7668.00
2022-10-11T20:08:42.353Z,7668.00
2022-10-11T20:13:49.675Z,7704.00
2022-10-11T20:18:56.827Z,7632.00
2022-10-11T20:24:03.986Z,7668.00
2022-10-11T20:29:12.307Z,7308.00
2022-10-11T20:34:19.509Z,7272.00
2022-10-11T20:39:26.647Z,7272.00
2022-10-11T20:44:33.856Z,7272.00
2022-10-11T20:49:41.052Z,7164.00
2022-10-11T20:54:48.631Z,7128.00
2022-10-11T20:59:55.844Z,7164.00
2022-10-11T21:05:03.042Z,7200.00
2022-10-11T21:10:10.274Z,7164.00
2022-10-11T21:15:17.557Z,7164.00
2022-10-11T21:20:24.767Z,7236.00
2022-10-11T21:25:31.966Z,7272.00
2022-10-11T21:30:39.179Z,7272.00
2022-10-11T21:35:46.368Z,7272.00
2022-10-11T21:40:53.579Z,7704.00
2022-10-11T21:46:00.759Z,7704.00
2022-10-11T21:51:07.951Z,7704.00
2022-10-11T21:56:15.082Z,7704.00
2022-10-11T22:01:22.367Z,7668.00
2022-10-11T22:06:29.509Z,7740.00
2022-10-11T22:11:36.857Z,7632.00
2022-10-11T22:16:44.123Z,7632.00
2022-10-11T22:21:51.264Z,7668.00
2022-10-11T22:26:58.444Z,7632.00
2022-10-11T22:32:05.652Z,7560.00
2022-10-11T22:37:12.842Z,7668.00
2022-10-11T22:42:23.065Z,7704.00
2022-10-11T22:47:27.270Z,7668.00
2022-10-11T22:52:34.437Z,7704.00
2022-10-11T22:57:41.654Z,7704.00
2022-10-11T23:02:48.907Z,7668.00
2022-10-11T23:07:56.028Z,7668.00
2022-10-11T23:13:03.258Z,7632.00
2022-10-11T23:18:10.487Z,7596.00
2022-10-11T23:23:17.772Z,7632.00
2022-10-11T23:28:25.002Z,7596.00
2022-10-11T23:33:32.175Z,7632.00
2022-10-11T23:38:39.331Z,7560.00
2022-10-11T23:43:46.954Z,7668.00
2022-10-11T23:48:54.204Z,7740.00
2022-10-11T23:54:01.382Z,7704.00
2022-10-11T23:59:08.609Z,7632.00
